createdAt,value
2022-08-23T00:01:01.312Z,5.3
2022-08-23T00:03:51.608Z,5.6
2022-08-23T00:06:42.146Z,6.2
2022-08-23T00:09:31.993Z,6.2
2022-08-23T00:12:19.922Z,8.1
2022-08-23T00:15:08.859Z,6.2
2022-08-23T00:17:59.874Z,6
2022-08-23T00:20:47.656Z,7.2
2022-08-23T00:23:36.046Z,8.1
2022-08-23T00:26:23.584Z,8.9
2022-08-23T00:29:11.225Z,4.1
2022-08-23T00:31:59.017Z,6.2
2022-08-23T00:34:47.286Z,4.8
2022-08-23T00:37:35.492Z,6.9
2022-08-23T00:40:24.238Z,4.2
2022-08-23T00:43:11.928Z,5.3
2022-08-23T00:46:44.537Z,6.6
2022-08-23T00:50:19.199Z,5.5
2022-08-23T00:53:20.004Z,7.6
2022-08-23T00:56:10.697Z,8.6
2022-08-23T00:59:03.222Z,4.2
2022-08-23T01:01:51.864Z,5.9
2022-08-23T01:04:40.729Z,9.6
2022-08-23T01:07:33.733Z,8.4
2022-08-23T01:10:32.722Z,5.9
2022-08-23T01:13:24.796Z,6
2022-08-23T01:16:21.065Z,9.1
2022-08-23T01:19:18.302Z,10
2022-08-23T01:22:12.146Z,9.3
2022-08-23T01:25:08.453Z,15.1
2022-08-23T01:28:02.541Z,8.4
2022-08-23T01:30:50.298Z,8.6
2022-08-23T01:33:38.490Z,6.6
2022-08-23T01:36:28.469Z,7.1
2022-08-23T01:39:16.925Z,7.4
2022-08-23T01:42:07.580Z,7
2022-08-23T01:44:55.827Z,7.9
2022-08-23T01:47:43.458Z,6.3
2022-08-23T01:50:31.097Z,8.9
2022-08-23T01:53:19.620Z,10
2022-08-23T01:56:07.329Z,8.2
2022-08-23T01:58:55.338Z,5.8
2022-08-23T02:01:43.089Z,6.5
2022-08-23T02:04:31.958Z,6.3
2022-08-23T02:07:19.626Z,8.3
2022-08-23T02:10:12.153Z,5.9
2022-08-23T02:13:00.541Z,10.3
2022-08-23T02:15:48.249Z,10.2
2022-08-23T02:18:37.142Z,5.5
2022-08-23T02:21:25.462Z,8.7
2022-08-23T02:24:15.993Z,7.7
2022-08-23T02:27:07.597Z,7.5
2022-08-23T02:29:56.104Z,12.9
2022-08-23T02:32:44.279Z,6
2022-08-23T02:35:31.818Z,7.5
2022-08-23T02:38:19.754Z,9.1
2022-08-23T02:41:07.724Z,6.9
2022-08-23T02:43:56.126Z,6.1
2022-08-23T02:46:43.991Z,8.7
2022-08-23T02:49:32.168Z,6.3
2022-08-23T02:52:20.483Z,12.6
2022-08-23T02:55:09.035Z,8.8
2022-08-23T02:57:57.249Z,9.9
2022-08-23T03:00:44.805Z,8.9
2022-08-23T03:03:33.145Z,11.7
2022-08-23T03:06:26.437Z,7.9
2022-08-23T03:09:14.333Z,12.4
2022-08-23T03:12:02.025Z,8.9
2022-08-23T03:14:49.846Z,11.1
2022-08-23T03:17:37.546Z,7.5
2022-08-23T03:20:25.219Z,8.8
2022-08-23T03:23:13.035Z,6.9
2022-08-23T03:26:00.651Z,6.6
2022-08-23T03:28:51.003Z,8.2
2022-08-23T03:31:38.838Z,9
2022-08-23T03:34:26.706Z,7.8
2022-08-23T03:37:14.530Z,7.4
2022-08-23T03:40:02.920Z,6.6
2022-08-23T03:42:52.694Z,8.5
2022-08-23T03:45:40.443Z,10.2
2022-08-23T03:48:27.969Z,13.7
2022-08-23T03:51:15.642Z,8.8
2022-08-23T03:54:03.719Z,8.8
2022-08-23T03:56:52.163Z,8.2
2022-08-23T03:59:44.371Z,6.4
2022-08-23T04:02:33.526Z,8.1
2022-08-23T04:05:21.371Z,7.2
2022-08-23T04:08:09.489Z,5.8
2022-08-23T04:10:58.456Z,8.5
2022-08-23T04:13:46.479Z,8.3
2022-08-23T04:16:34.424Z,7.5
2022-08-23T04:19:22.704Z,8.7
2022-08-23T04:22:10.837Z,10.1
2022-08-23T04:25:00.025Z,6.3
2022-08-23T04:27:48.282Z,7.8
2022-08-23T04:30:36.125Z,8.5
2022-08-23T04:33:25.467Z,6.9
2022-08-23T04:36:16.491Z,7.7
2022-08-23T04:39:04.118Z,10
2022-08-23T04:41:52.756Z,7
2022-08-23T04:45:04.155Z,7.4
2022-08-23T04:47:53.270Z,9.2
2022-08-23T04:50:41.230Z,7
2022-08-23T04:53:28.919Z,8.3
2022-08-23T04:56:19.838Z,8.1
2022-08-23T04:59:08.261Z,6.6
2022-08-23T05:02:00.471Z,9.9
2022-08-23T05:04:48.054Z,7.4
2022-08-23T05:07:42.767Z,7.7
2022-08-23T05:10:30.780Z,8.3
2022-08-23T05:13:18.728Z,7.8
2022-08-23T05:16:07.042Z,6.9
2022-08-23T05:18:54.943Z,6.9
2022-08-23T05:21:42.699Z,7.6
2022-08-23T05:24:30.926Z,7.8
2022-08-23T05:27:18.512Z,6.9
2022-08-23T05:30:06.611Z,8
2022-08-23T05:32:56.036Z,7.5
2022-08-23T05:35:45.567Z,5
2022-08-23T05:38:33.419Z,8.6
2022-08-23T05:41:21.372Z,7.8
2022-08-23T05:44:09.384Z,7.1
2022-08-23T05:46:57.515Z,6.1
2022-08-23T05:49:45.437Z,5.9
2022-08-23T05:52:32.959Z,6.3
2022-08-23T05:55:20.627Z,5.9
2022-08-23T05:58:15.133Z,8.7
2022-08-23T06:01:02.936Z,6.6
2022-08-23T06:03:51.211Z,6.3
2022-08-23T06:06:39.119Z,7.7
2022-08-23T06:09:28.394Z,7.5
2022-08-23T06:12:16.018Z,6
2022-08-23T06:15:03.535Z,10.4
2022-08-23T06:17:51.879Z,4.6
2022-08-23T06:20:39.499Z,6.4
2022-08-23T06:23:27.497Z,7.9
2022-08-23T06:26:15.471Z,5.9
2022-08-23T06:29:05.328Z,6.7
2022-08-23T06:31:55.971Z,7.3
2022-08-23T06:34:43.755Z,6.9
2022-08-23T06:37:31.255Z,8.5
2022-08-23T06:40:18.825Z,5.3
2022-08-23T06:43:06.714Z,5.6
2022-08-23T06:45:58.248Z,7.2
2022-08-23T06:48:56.709Z,6.4
2022-08-23T06:51:45.500Z,7.5
2022-08-23T06:54:36.155Z,9.2
2022-08-23T06:57:24.728Z,8.4
2022-08-23T07:00:12.296Z,6.9
2022-08-23T07:03:00.614Z,9.4
2022-08-23T07:05:48.713Z,5.9
2022-08-23T07:08:36.352Z,9.2
2022-08-23T07:11:24.333Z,6.8
2022-08-23T07:14:14.271Z,10
2022-08-23T07:17:04.720Z,10.2
2022-08-23T07:19:53.793Z,7.7
2022-08-23T07:22:41.342Z,7.6
2022-08-23T07:25:29.308Z,9.7
2022-08-23T07:28:17.120Z,7.7
2022-08-23T07:31:04.972Z,9.3
2022-08-23T07:34:05.351Z,10.5
2022-08-23T07:36:53.663Z,7.5
2022-08-23T07:39:41.486Z,8.2
2022-08-23T07:42:29.968Z,8.2
2022-08-23T07:45:18.429Z,10.2
2022-08-23T07:48:10.061Z,8.8
2022-08-23T07:51:02.311Z,12
2022-08-23T07:53:53.506Z,11.5
2022-08-23T07:56:41.727Z,11.8
2022-08-23T07:59:34.119Z,10.1
2022-08-23T08:02:23.128Z,15.4
2022-08-23T08:05:10.861Z,10.8
2022-08-23T08:07:58.481Z,9.6
2022-08-23T08:10:48.045Z,14.8
2022-08-23T08:13:39.784Z,11.4
2022-08-23T08:16:29.747Z,12.7
2022-08-23T08:19:21.187Z,9.6
2022-08-23T08:22:09.336Z,9.4
2022-08-23T08:24:57.733Z,9.9
2022-08-23T08:27:45.970Z,10
2022-08-23T08:30:33.736Z,10.6
2022-08-23T08:33:21.401Z,10.7
2022-08-23T08:36:12.625Z,10.8
2022-08-23T08:39:15.960Z,12.7
2022-08-23T08:42:05.808Z,8.6
2022-08-23T08:45:11.115Z,12.8
2022-08-23T08:48:04.648Z,12.6
2022-08-23T08:50:55.110Z,11.1
2022-08-23T08:53:48.809Z,15
2022-08-23T08:56:37.064Z,13.4
2022-08-23T08:59:26.480Z,9.9
2022-08-23T09:02:32.278Z,10
2022-08-23T09:05:22.680Z,12.1
2022-08-23T09:08:16.665Z,12.1
2022-08-23T09:11:25.534Z,11.2
2022-08-23T09:14:25.217Z,13.4
2022-08-23T09:17:27.169Z,12.3
2022-08-23T09:20:28.907Z,11.3
2022-08-23T09:23:20.309Z,10.1
2022-08-23T09:26:12.760Z,12.3
2022-08-23T09:29:06.655Z,11.6
2022-08-23T09:32:03.473Z,10.8
2022-08-23T09:35:10.985Z,16.3
2022-08-23T09:38:02.851Z,8.7
2022-08-23T09:41:04.882Z,8.1
2022-08-23T09:44:05.262Z,9.7
2022-08-23T09:46:58.356Z,10.8
2022-08-23T09:49:53.188Z,14
2022-08-23T09:52:40.955Z,12.6
2022-08-23T09:55:29.534Z,10.5
2022-08-23T09:58:20.100Z,14.8
2022-08-23T10:01:17.044Z,12.2
2022-08-23T10:04:08.563Z,11
2022-08-23T10:06:59.186Z,10.8
2022-08-23T10:10:05.440Z,13.6
2022-08-23T10:13:09.501Z,11.5
2022-08-23T10:15:57.828Z,10.2
2022-08-23T10:18:56.593Z,12.5
2022-08-23T10:21:52.751Z,10.7
2022-08-23T10:24:48.516Z,10.3
2022-08-23T10:27:47.262Z,11.8
2022-08-23T10:31:15.361Z,11.7
2022-08-23T10:34:12.478Z,13.9
2022-08-23T10:37:18.841Z,15.5
2022-08-23T10:40:22.136Z,14.5
2022-08-23T10:43:15.496Z,12.6
2022-08-23T10:46:21.618Z,12.2
2022-08-23T10:49:14.453Z,11.1
2022-08-23T10:52:01.995Z,11.6
2022-08-23T10:54:54.258Z,12.6
2022-08-23T10:57:45.482Z,12.5
2022-08-23T11:00:33.991Z,13.2
2022-08-23T11:03:26.878Z,16.4
2022-08-23T11:06:22.026Z,15.4
2022-08-23T11:09:31.232Z,15.8
2022-08-23T11:12:35.173Z,14
2022-08-23T11:15:44.655Z,12.4
2022-08-23T11:18:43.106Z,15.3
2022-08-23T11:21:33.402Z,14.7
2022-08-23T11:24:31.363Z,14
2022-08-23T11:27:37.836Z,13.2
2022-08-23T11:30:27.731Z,15.9
2022-08-23T11:33:34.492Z,15.1
2022-08-23T11:36:30.503Z,13.4
2022-08-23T11:39:25.229Z,17.1
2022-08-23T11:42:13.220Z,14
2022-08-23T11:45:04.424Z,17
2022-08-23T11:48:07.812Z,17.7
2022-08-23T11:51:01.580Z,19.6
2022-08-23T11:54:18.118Z,15.3
2022-08-23T11:57:23.999Z,16.4
2022-08-23T12:00:33.260Z,14.3
2022-08-23T12:03:40.360Z,13.2
2022-08-23T12:06:40.753Z,13.9
2022-08-23T12:09:32.966Z,12.4
2022-08-23T12:12:45.190Z,13.9
2022-08-23T12:16:16.542Z,13.2
2022-08-23T12:19:16.810Z,14.7
2022-08-23T12:22:17.838Z,12.6
2022-08-23T12:25:08.041Z,15.7
2022-08-23T12:27:55.697Z,15
2022-08-23T12:30:52.376Z,17.2
2022-08-23T12:33:46.442Z,15
2022-08-23T12:36:45.707Z,16.8
2022-08-23T12:39:45.432Z,14.3
2022-08-23T12:42:38.078Z,13.7
2022-08-23T12:45:26.634Z,15.8
2022-08-23T12:48:23.709Z,14.6
2022-08-23T12:51:15.479Z,14
2022-08-23T12:54:03.096Z,16.7
2022-08-23T12:57:00.077Z,17.7
2022-08-23T13:00:01.352Z,13.1
2022-08-23T13:03:09.375Z,16.4
2022-08-23T13:06:02.653Z,17.4
2022-08-23T13:08:53.690Z,17.8
2022-08-23T13:11:47.633Z,16.7
2022-08-23T13:14:36.993Z,16.9
2022-08-23T13:17:31.017Z,16.8
2022-08-23T13:20:24.685Z,16.5
2022-08-23T13:23:12.874Z,18
2022-08-23T13:26:13.420Z,15.8
2022-08-23T13:29:33.545Z,16.6
2022-08-23T13:32:34.643Z,17.7
2022-08-23T13:35:26.005Z,17.4
2022-08-23T13:38:21.346Z,20.6
2022-08-23T13:41:16.047Z,17.3
2022-08-23T13:44:19.080Z,15.1
2022-08-23T13:47:07.981Z,16.6
2022-08-23T13:50:11.605Z,16.4
2022-08-23T13:53:14.374Z,19.9
2022-08-23T13:56:03.336Z,21
2022-08-23T13:58:51.210Z,15.2
2022-08-23T14:01:42.515Z,14.9
2022-08-23T14:04:30.549Z,18.2
2022-08-23T14:07:19.261Z,17.2
2022-08-23T14:10:07.618Z,16.9
2022-08-23T14:12:55.541Z,15.8
2022-08-23T14:16:32.395Z,17.2
2022-08-23T14:22:40.910Z,14.2
2022-08-23T14:25:28.903Z,18.3
2022-08-23T14:28:16.869Z,14
2022-08-23T14:31:04.557Z,15.9
2022-08-23T14:33:52.329Z,18.8
2022-08-23T14:36:39.901Z,22.4
2022-08-23T14:39:27.844Z,15.3
2022-08-23T14:42:15.810Z,13.7
2022-08-23T14:45:07.293Z,16.6
2022-08-23T14:47:56.125Z,15.9
2022-08-23T14:50:43.828Z,18.7
2022-08-23T14:53:32.544Z,14
2022-08-23T14:56:23.331Z,18.6
2022-08-23T14:59:11.690Z,15.6
2022-08-23T15:01:59.466Z,14.2
2022-08-23T15:04:48.142Z,12.7
2022-08-23T15:07:36.200Z,16.3
2022-08-23T15:10:50.305Z,17.5
2022-08-23T15:13:54.813Z,13
2022-08-23T15:16:44.597Z,15.9
2022-08-23T15:19:34.086Z,16.5
2022-08-23T15:22:22.260Z,19.7
2022-08-23T15:25:10.600Z,15.3
2022-08-23T15:27:59.028Z,12.7
2022-08-23T15:30:47.111Z,13.5
2022-08-23T15:33:36.219Z,14.1
2022-08-23T15:36:25.995Z,13.3
2022-08-23T15:39:13.774Z,16
2022-08-23T15:42:01.847Z,14.4
2022-08-23T15:44:50.117Z,15.6
2022-08-23T15:47:37.786Z,20.8
2022-08-23T15:50:31.967Z,14.3
2022-08-23T15:53:20.466Z,21.1
2022-08-23T15:56:13.309Z,12.7
2022-08-23T15:59:13.773Z,13.6
2022-08-23T16:02:04.303Z,16.6
2022-08-23T16:04:52.457Z,14.7
2022-08-23T16:07:40.514Z,14.3
2022-08-23T16:10:28.616Z,15
2022-08-23T16:13:16.117Z,13.7
2022-08-23T16:16:04.464Z,14.4
2022-08-23T16:19:04.569Z,13.4
2022-08-23T16:21:53.839Z,12.9
2022-08-23T16:24:41.990Z,16.7
2022-08-23T16:27:29.823Z,17.1
2022-08-23T16:30:17.763Z,17.7
2022-08-23T16:33:05.509Z,12.2
2022-08-23T16:35:53.158Z,17.5
2022-08-23T16:38:40.740Z,17.2
2022-08-23T16:41:28.628Z,19.1
2022-08-23T16:44:16.305Z,13.9
2022-08-23T16:47:04.696Z,17.1
2022-08-23T16:49:54.533Z,15
2022-08-23T16:52:42.249Z,15.3
2022-08-23T16:55:29.768Z,12.9
2022-08-23T16:58:18.481Z,15.9
2022-08-23T17:01:06.588Z,17.2
2022-08-23T17:03:58.518Z,15.3
2022-08-23T17:06:46.266Z,17.4
2022-08-23T17:09:37.011Z,12.9
2022-08-23T17:12:24.711Z,13.6
2022-08-23T17:15:12.649Z,12.4
2022-08-23T17:18:09.620Z,12.4
2022-08-23T17:20:57.324Z,15.3
2022-08-23T17:23:44.884Z,15.5
2022-08-23T17:26:32.764Z,12.2
2022-08-23T17:29:20.555Z,16.8
2022-08-23T17:32:08.176Z,11.7
2022-08-23T17:34:56.038Z,17.2
2022-08-23T17:37:44.087Z,11.4
2022-08-23T17:40:31.878Z,11.8
2022-08-23T17:43:22.537Z,11.8
2022-08-23T17:46:10.829Z,14.4
2022-08-23T17:48:58.541Z,15.8
2022-08-23T17:51:46.484Z,14.6
2022-08-23T17:54:34.372Z,10.3
2022-08-23T17:57:22.432Z,16.7
2022-08-23T18:00:11.257Z,13.7
2022-08-23T18:03:01.220Z,21.1
2022-08-23T18:05:49.988Z,18.2
2022-08-23T18:08:37.982Z,12
2022-08-23T18:11:25.637Z,14.9
2022-08-23T18:14:13.931Z,14.5
2022-08-23T18:17:01.649Z,13.8
2022-08-23T18:19:49.768Z,12.9
2022-08-23T18:22:37.826Z,16.4
2022-08-23T18:25:26.065Z,18.3
2022-08-23T18:28:14.436Z,12.5
2022-08-23T18:31:02.750Z,10.7
2022-08-23T18:33:51.251Z,12.4
2022-08-23T18:36:39.450Z,13.8
2022-08-23T18:39:31.737Z,14.3
2022-08-23T18:42:20.029Z,13.9
2022-08-23T18:45:08.491Z,14.3
2022-08-23T18:47:58.520Z,12.2
2022-08-23T18:50:45.985Z,13.7
2022-08-23T18:53:34.298Z,10.8
2022-08-23T18:56:23.205Z,11
2022-08-23T18:59:11.809Z,12.7
2022-08-23T19:01:59.518Z,14.3
2022-08-23T19:04:47.209Z,12.5
2022-08-23T19:07:35.040Z,16.6
2022-08-23T19:10:22.765Z,11.4
2022-08-23T19:13:10.751Z,13.3
2022-08-23T19:15:58.991Z,8.9
2022-08-23T19:18:46.699Z,11.4
2022-08-23T19:21:35.560Z,12.3
2022-08-23T19:24:23.497Z,14.3
2022-08-23T19:27:13.295Z,17.1
2022-08-23T19:30:00.996Z,13.5
2022-08-23T19:32:51.316Z,11.2
2022-08-23T19:35:39.637Z,12.4
2022-08-23T19:38:28.016Z,9.8
2022-08-23T19:41:16.567Z,10
2022-08-23T19:44:04.740Z,10.4
2022-08-23T19:46:52.773Z,13.9
2022-08-23T19:49:41.042Z,9.4
2022-08-23T19:52:28.695Z,11
2022-08-23T19:55:16.734Z,12.2
2022-08-23T19:58:04.746Z,9.8
2022-08-23T20:00:53.478Z,11.8
2022-08-23T20:03:42.006Z,10.6
2022-08-23T20:06:29.816Z,12
2022-08-23T20:09:17.741Z,10.1
2022-08-23T20:12:07.516Z,14.1
2022-08-23T20:14:56.181Z,11.8
2022-08-23T20:17:44.277Z,12.3
2022-08-23T20:20:32.015Z,17.5
2022-08-23T20:23:20.022Z,16.4
2022-08-23T20:26:39.486Z,18.4
2022-08-23T20:29:29.524Z,12.2
2022-08-23T20:32:17.169Z,13.6
2022-08-23T20:35:05.214Z,9.5
2022-08-23T20:37:54.234Z,11.8
2022-08-23T20:40:42.014Z,9.4
2022-08-23T20:43:29.599Z,16.1
2022-08-23T20:46:18.070Z,11.3
2022-08-23T20:49:06.081Z,9.3
2022-08-23T20:51:54.292Z,10.5
2022-08-23T20:54:43.158Z,12
2022-08-23T20:57:32.018Z,10.6
2022-08-23T21:00:26.304Z,10.4
2022-08-23T21:03:14.211Z,13.3
2022-08-23T21:06:02.254Z,11.3
2022-08-23T21:08:54.282Z,14.5
2022-08-23T21:11:44.663Z,13.3
2022-08-23T21:14:33.771Z,18.5
2022-08-23T21:17:21.327Z,14.5
2022-08-23T21:20:09.447Z,18.5
2022-08-23T21:22:57.359Z,13.7
2022-08-23T21:25:45.050Z,16.7
2022-08-23T21:28:38.937Z,16
2022-08-23T21:31:26.976Z,14.4
2022-08-23T21:34:16.110Z,11.8
2022-08-23T21:37:04.268Z,13.4
2022-08-23T21:39:51.975Z,11.2
2022-08-23T21:42:40.323Z,11.4
2022-08-23T21:45:27.997Z,13.3
2022-08-23T21:48:15.859Z,8.6
2022-08-23T21:51:03.498Z,14.1
2022-08-23T21:53:51.261Z,9.7
2022-08-23T21:56:39.030Z,12.6
2022-08-23T21:59:27.195Z,11.1
2022-08-23T22:02:14.938Z,13.5
2022-08-23T22:05:03.768Z,11.4
2022-08-23T22:07:52.529Z,9.5
2022-08-23T22:10:40.236Z,13.6
2022-08-23T22:13:38.424Z,13.5
2022-08-23T22:16:26.763Z,13.6
2022-08-23T22:19:14.441Z,10.9
2022-08-23T22:22:03.838Z,14
2022-08-23T22:24:51.545Z,8.8
2022-08-23T22:27:39.328Z,9.3
2022-08-23T22:30:26.923Z,14.7
2022-08-23T22:33:14.634Z,16.3
2022-08-23T22:36:04.948Z,11.3
2022-08-23T22:38:55.781Z,12.1
2022-08-23T22:41:44.224Z,9.9
2022-08-23T22:44:31.815Z,12.4
2022-08-23T22:47:19.512Z,10.2
2022-08-23T22:50:07.557Z,11.3
2022-08-23T22:52:55.985Z,11.7
2022-08-23T22:55:43.597Z,10.6
2022-08-23T22:58:35.300Z,10.4
2022-08-23T23:01:24.931Z,14.3
2022-08-23T23:04:16.401Z,12.3
2022-08-23T23:07:07.206Z,12.9
2022-08-23T23:09:54.739Z,14.3
2022-08-23T23:12:42.306Z,11.1
2022-08-23T23:15:30.065Z,14.3
2022-08-23T23:18:17.617Z,11.7
2022-08-23T23:21:06.388Z,10.6
2022-08-23T23:23:54.782Z,17.5
2022-08-23T23:26:42.308Z,10.2
2022-08-23T23:29:35.462Z,13.2
2022-08-23T23:32:23.571Z,15.8
2022-08-23T23:35:11.284Z,10.8
2022-08-23T23:37:59.394Z,11
2022-08-23T23:40:48.443Z,13.1
2022-08-23T23:43:36.733Z,12.9
2022-08-23T23:46:24.785Z,10.8
2022-08-23T23:49:13.191Z,11.6
2022-08-23T23:52:01.465Z,11.4
2022-08-23T23:54:51.896Z,10.9
2022-08-23T23:57:39.832Z,10.8
